createdAt,value
2018-09-15T00:00:55.183Z,99604.67
2018-09-15T00:03:24.692Z,99606.36
2018-09-15T00:05:53.536Z,99612.78
2018-09-15T00:08:22.420Z,99613.67
2018-09-15T00:10:51.685Z,99605.92
2018-09-15T00:13:21.719Z,99611.53
2018-09-15T00:15:50.538Z,99606.09
2018-09-15T00:18:20.067Z,99605.02
2018-09-15T00:20:48.943Z,99600.16
2018-09-15T00:23:17.825Z,99604.52
2018-09-15T00:25:46.801Z,99603.67
2018-09-15T00:28:15.596Z,99602.24
2018-09-15T00:30:44.479Z,99601.62
2018-09-15T00:33:13.807Z,99607.95
2018-09-15T00:35:42.608Z,99600.64
2018-09-15T00:38:11.464Z,99595.30
2018-09-15T00:40:40.689Z,99593.87
2018-09-15T00:43:09.430Z,99586.34
2018-09-15T00:45:38.323Z,99584.28
2018-09-15T00:48:07.157Z,99587.47
2018-09-15T00:50:36.011Z,99589.05
2018-09-15T00:53:04.824Z,99589.30
2018-09-15T00:55:33.996Z,99584.91
2018-09-15T00:58:02.876Z,99587.58
2018-09-15T01:00:31.758Z,99589.30
2018-09-15T01:03:00.991Z,99589.29
2018-09-15T01:05:29.847Z,99586.03
2018-09-15T01:07:58.789Z,99591.73
2018-09-15T01:10:28.175Z,99592.70
2018-09-15T01:12:56.946Z,99592.22
2018-09-15T01:15:25.702Z,99587.83
2018-09-15T01:17:55.025Z,99591.02
2018-09-15T01:20:23.867Z,99592.84
2018-09-15T01:22:52.741Z,99593.53
2018-09-15T01:25:21.576Z,99591.23
2018-09-15T01:27:50.602Z,99585.28
2018-09-15T01:30:19.449Z,99590.86
2018-09-15T01:32:48.763Z,99588.80
2018-09-15T01:35:17.569Z,99588.20
2018-09-15T01:37:46.420Z,99584.83
2018-09-15T01:40:15.290Z,99583.70
2018-09-15T01:42:44.068Z,99583.34
2018-09-15T01:45:12.872Z,99583.47
2018-09-15T01:47:42.079Z,99581.40
2018-09-15T01:50:11.005Z,99574.00
2018-09-15T01:52:39.884Z,99581.30
2018-09-15T01:55:08.954Z,99582.25
2018-09-15T01:57:37.973Z,99578.73
2018-09-15T02:00:06.899Z,99585.53
2018-09-15T02:02:36.045Z,99591.45
2018-09-15T02:05:04.926Z,99589.63
2018-09-15T02:07:33.662Z,99591.58
2018-09-15T02:10:02.509Z,99591.38
2018-09-15T02:12:31.343Z,99590.75
2018-09-15T02:15:00.292Z,99589.42
2018-09-15T02:17:29.559Z,99587.95
2018-09-15T02:19:58.355Z,99584.20
2018-09-15T02:22:27.224Z,99589.78
2018-09-15T02:24:56.442Z,99588.44
2018-09-15T02:27:25.367Z,99588.45
2018-09-15T02:29:54.251Z,99588.81
2018-09-15T02:32:23.152Z,99586.60
2018-09-15T02:34:51.944Z,99587.46
2018-09-15T02:37:20.715Z,99587.46
2018-09-15T02:39:49.969Z,99587.48
2018-09-15T02:42:18.855Z,99584.09
2018-09-15T02:44:47.659Z,99588.81
2018-09-15T02:47:16.851Z,99592.82
2018-09-15T02:49:45.629Z,99586.49
2018-09-15T02:52:14.444Z,99582.88
2018-09-15T02:54:43.727Z,99585.90
2018-09-15T02:57:12.523Z,99583.73
2018-09-15T02:59:41.207Z,99586.14
2018-09-15T03:02:10.360Z,99582.38
2018-09-15T03:04:39.196Z,99581.64
2018-09-15T03:07:08.055Z,99581.28
2018-09-15T03:09:37.242Z,99581.77
2018-09-15T03:12:06.004Z,99584.20
2018-09-15T03:14:34.892Z,99588.56
2018-09-15T03:17:04.104Z,99590.02
2018-09-15T03:19:32.939Z,99589.42
2018-09-15T03:22:01.808Z,99592.46
2018-09-15T03:24:31.009Z,99595.95
2018-09-15T03:26:59.898Z,99598.64
2018-09-15T03:29:28.709Z,99593.03
2018-09-15T03:31:57.962Z,99594.98
2018-09-15T03:34:26.785Z,99591.09
2018-09-15T03:36:55.745Z,99589.64
2018-09-15T03:39:24.714Z,99595.34
2018-09-15T03:41:53.595Z,99599.11
2018-09-15T03:44:22.749Z,99609.39
2018-09-15T03:46:51.628Z,99611.21
2018-09-15T03:49:20.437Z,99603.45
2018-09-15T03:51:49.382Z,99611.94
2018-09-15T03:54:20.371Z,99614.97
2018-09-15T03:56:49.460Z,99621.66
2018-09-15T03:59:18.681Z,99623.00
2018-09-15T04:01:48.121Z,99627.09
2018-09-15T04:04:17.011Z,99627.22
2018-09-15T04:06:45.896Z,99633.25
2018-09-15T04:09:15.054Z,99640.88
2018-09-15T04:11:43.825Z,99641.34
2018-09-15T04:14:12.628Z,99637.94
2018-09-15T04:16:41.488Z,99646.23
2018-09-15T04:19:10.314Z,99648.89
2018-09-15T04:21:39.090Z,99650.09
2018-09-15T04:24:08.389Z,99650.47
2018-09-15T04:26:37.158Z,99654.83
2018-09-15T04:29:05.925Z,99658.22
2018-09-15T04:31:34.686Z,99650.22
2018-09-15T04:34:03.449Z,99654.16
2018-09-15T04:36:32.269Z,99655.12
2018-09-15T04:39:01.135Z,99662.80
2018-09-15T04:41:30.045Z,99660.61
2018-09-15T04:43:58.877Z,99664.39
2018-09-15T04:46:27.643Z,99671.30
2018-09-15T04:48:56.432Z,99672.27
2018-09-15T04:51:25.136Z,99674.84
2018-09-15T04:53:54.036Z,99674.38
2018-09-15T04:56:22.846Z,99673.63
2018-09-15T04:58:51.930Z,99675.84
2018-09-15T05:01:20.763Z,99675.95
2018-09-15T05:03:49.638Z,99668.09
2018-09-15T05:06:18.492Z,99667.50
2018-09-15T05:08:47.306Z,99670.28
2018-09-15T05:11:16.167Z,99674.02
2018-09-15T05:13:44.935Z,99672.30
2018-09-15T05:16:14.207Z,99665.63
2018-09-15T05:18:43.232Z,99679.22
2018-09-15T05:21:11.972Z,99673.13
2018-09-15T05:23:40.920Z,99670.95
2018-09-15T05:26:09.803Z,99670.70
2018-09-15T05:28:38.543Z,99673.70
2018-09-15T05:31:07.730Z,99664.66
2018-09-15T05:33:36.711Z,99664.17
2018-09-15T05:36:05.535Z,99670.45
2018-09-15T05:38:34.456Z,99676.19
2018-09-15T05:41:03.236Z,99670.70
2018-09-15T05:43:32.151Z,99672.13
2018-09-15T05:46:01.119Z,99675.95
2018-09-15T05:48:29.983Z,99671.30
2018-09-15T05:50:58.921Z,99675.17
2018-09-15T05:53:28.112Z,99676.30
2018-09-15T05:55:57.092Z,99677.93
2018-09-15T05:58:25.808Z,99679.47
2018-09-15T06:00:55.282Z,99674.30
2018-09-15T06:03:24.270Z,99675.45
2018-09-15T06:05:53.349Z,99676.16
2018-09-15T06:08:22.100Z,99671.23
2018-09-15T06:10:50.913Z,99684.78
2018-09-15T06:13:19.825Z,99682.71
2018-09-15T06:15:49.160Z,99681.13
2018-09-15T06:18:18.013Z,99680.77
2018-09-15T06:20:46.785Z,99682.15
2018-09-15T06:23:16.008Z,99684.78
2018-09-15T06:25:44.758Z,99679.09
2018-09-15T06:28:13.745Z,99680.50
2018-09-15T06:30:42.881Z,99684.95
2018-09-15T06:33:11.715Z,99683.73
2018-09-15T06:35:40.592Z,99687.77
2018-09-15T06:38:10.182Z,99688.56
2018-09-15T06:40:39.050Z,99686.23
2018-09-15T06:43:08.002Z,99691.09
2018-09-15T06:45:36.875Z,99695.17
2018-09-15T06:48:05.703Z,99699.50
2018-09-15T06:50:34.541Z,99703.08
2018-09-15T06:53:03.677Z,99707.91
2018-09-15T06:55:32.499Z,99709.56
2018-09-15T06:58:01.308Z,99710.08
2018-09-15T07:00:30.136Z,99706.02
2018-09-15T07:02:58.909Z,99708.39
2018-09-15T07:05:27.730Z,99711.60
2018-09-15T07:07:56.540Z,99703.13
2018-09-15T07:10:25.348Z,99704.45
2018-09-15T07:12:54.176Z,99705.16
2018-09-15T07:15:22.943Z,99704.95
2018-09-15T07:17:51.760Z,99702.05
2018-09-15T07:20:20.700Z,99705.44
2018-09-15T07:22:50.127Z,99702.53
2018-09-15T07:25:18.952Z,99703.28
2018-09-15T07:27:47.770Z,99699.24
2018-09-15T07:30:16.793Z,99696.82
2018-09-15T07:32:45.591Z,99695.02
2018-09-15T07:35:14.644Z,99695.30
2018-09-15T07:37:43.539Z,99692.37
2018-09-15T07:40:12.361Z,99687.94
2018-09-15T07:42:41.041Z,99691.58
2018-09-15T07:45:10.324Z,99687.11
2018-09-15T07:47:39.040Z,99684.41
2018-09-15T07:50:07.911Z,99684.65
2018-09-15T07:52:37.199Z,99687.41
2018-09-15T07:55:05.946Z,99685.42
2018-09-15T07:57:34.790Z,99677.64
2018-09-15T08:00:04.141Z,99680.21
2018-09-15T08:02:32.865Z,99674.16
2018-09-15T08:05:01.657Z,99677.19
2018-09-15T08:07:30.449Z,99669.74
2018-09-15T08:09:59.296Z,99673.42
2018-09-15T08:12:28.116Z,99665.65
2018-09-15T08:14:56.927Z,99660.21
2018-09-15T08:17:25.600Z,99658.48
2018-09-15T08:19:54.427Z,99660.80
2018-09-15T08:22:23.636Z,99652.11
2018-09-15T08:24:52.310Z,99655.05
2018-09-15T08:27:21.022Z,99653.17
2018-09-15T08:29:50.274Z,99651.22
2018-09-15T08:32:19.209Z,99655.61
2018-09-15T08:34:48.093Z,99648.09
2018-09-15T08:37:17.591Z,99647.48
2018-09-15T08:39:46.481Z,99651.81
2018-09-15T08:42:15.343Z,99645.66
2018-09-15T08:44:44.443Z,99642.84
2018-09-15T08:47:13.223Z,99642.45
2018-09-15T08:49:42.111Z,99641.42
2018-09-15T08:52:11.357Z,99641.22
2018-09-15T08:54:40.207Z,99637.05
2018-09-15T08:57:09.008Z,99634.31
2018-09-15T08:59:38.210Z,99639.48
2018-09-15T09:02:11.112Z,99638.89
2018-09-15T09:04:39.948Z,99627.31
2018-09-15T09:07:08.775Z,99626.87
2018-09-15T09:09:37.638Z,99623.97
2018-09-15T09:12:06.573Z,99620.35
2018-09-15T09:14:35.332Z,99623.62
2018-09-15T09:17:04.388Z,99613.80
2018-09-15T09:19:33.626Z,99618.20
2018-09-15T09:22:02.418Z,99614.05
2018-09-15T09:24:31.256Z,99608.55
2018-09-15T09:27:00.475Z,99608.77
2018-09-15T09:29:29.290Z,99600.91
2018-09-15T09:31:58.054Z,99603.20
2018-09-15T09:34:26.959Z,99595.89
2018-09-15T09:36:55.787Z,99591.98
2018-09-15T09:39:24.709Z,99597.02
2018-09-15T09:41:53.621Z,99593.53
2018-09-15T09:44:22.484Z,99590.02
2018-09-15T09:46:51.307Z,99583.81
2018-09-15T09:49:20.384Z,99583.33
2018-09-15T09:51:49.251Z,99592.21
2018-09-15T09:54:17.993Z,99584.71
2018-09-15T09:56:47.344Z,99585.21
2018-09-15T09:59:16.255Z,99581.08
2018-09-15T10:01:50.628Z,99579.11
2018-09-15T10:04:19.479Z,99584.41
2018-09-15T10:06:48.479Z,99582.09
2018-09-15T10:09:17.288Z,99579.80
2018-09-15T10:11:46.320Z,99577.29
2018-09-15T10:14:15.135Z,99582.95
2018-09-15T10:16:44.387Z,99573.28
2018-09-15T10:19:13.308Z,99577.48
2018-09-15T10:21:42.562Z,99570.21
2018-09-15T10:24:11.677Z,99566.56
2018-09-15T10:26:40.461Z,99562.67
2018-09-15T10:29:10.423Z,99561.63
2018-09-15T10:31:39.637Z,99561.88
2018-09-15T10:34:08.711Z,99559.05
2018-09-15T10:36:37.600Z,99549.58
2018-09-15T10:39:08.729Z,99558.01
2018-09-15T10:41:37.728Z,99553.91
2018-09-15T10:44:06.610Z,99547.48
2018-09-15T10:46:35.558Z,99551.89
2018-09-15T10:49:04.456Z,99539.69
2018-09-15T10:51:33.212Z,99544.13
2018-09-15T10:54:02.412Z,99545.11
2018-09-15T10:56:31.301Z,99546.33
2018-09-15T10:59:00.117Z,99533.48
2018-09-15T11:01:29.781Z,99539.45
2018-09-15T11:03:58.670Z,99539.91
2018-09-15T11:06:27.980Z,99537.81
2018-09-15T11:08:57.064Z,99527.41
2018-09-15T11:11:25.853Z,99526.09
2018-09-15T11:13:54.745Z,99523.39
2018-09-15T11:16:23.611Z,99526.27
2018-09-15T11:18:52.450Z,99524.19
2018-09-15T11:21:21.260Z,99522.30
2018-09-15T11:23:50.485Z,99514.22
2018-09-15T11:28:58.228Z,99515.92
2018-09-15T11:31:27.032Z,99508.48
2018-09-15T11:33:55.884Z,99510.16
2018-09-15T11:36:25.157Z,99510.61
2018-09-15T11:38:54.248Z,99506.19
2018-09-15T11:41:23.530Z,99504.81
2018-09-15T11:43:52.490Z,99506.70
2018-09-15T11:46:21.339Z,99492.55
2018-09-15T11:48:50.310Z,99493.92
2018-09-15T11:51:19.317Z,99491.83
2018-09-15T11:53:49.149Z,99487.31
2018-09-15T11:56:19.776Z,99485.99
2018-09-15T11:58:48.613Z,99485.53
2018-09-15T12:01:20.038Z,99485.01
2018-09-15T12:03:49.497Z,99479.02
2018-09-15T12:06:18.395Z,99476.52
2018-09-15T12:08:47.264Z,99474.05
2018-09-15T12:11:16.557Z,99480.22
2018-09-15T12:13:45.353Z,99479.62
2018-09-15T12:16:14.144Z,99478.96
2018-09-15T12:18:43.431Z,99481.77
2018-09-15T12:21:13.330Z,99478.75
2018-09-15T12:23:42.248Z,99481.08
2018-09-15T12:26:11.325Z,99479.08
2018-09-15T12:28:40.121Z,99476.55
2018-09-15T12:31:09.091Z,99475.56
2018-09-15T12:33:38.447Z,99463.34
2018-09-15T12:36:07.337Z,99461.31
2018-09-15T12:38:36.225Z,99458.56
2018-09-15T12:41:05.485Z,99462.88
2018-09-15T12:43:34.273Z,99462.72
2018-09-15T12:46:03.045Z,99461.09
2018-09-15T12:48:32.366Z,99445.44
2018-09-15T12:51:01.049Z,99456.66
2018-09-15T12:53:29.885Z,99457.35
2018-09-15T12:55:59.009Z,99457.64
2018-09-15T12:58:27.776Z,99462.89
2018-09-15T13:00:56.626Z,99456.83
2018-09-15T13:03:25.508Z,99458.11
2018-09-15T13:05:54.337Z,99439.52
2018-09-15T13:08:23.109Z,99447.70
2018-09-15T13:10:51.994Z,99452.12
2018-09-15T13:13:20.885Z,99446.13
2018-09-15T13:15:49.804Z,99447.70
2018-09-15T13:18:18.639Z,99435.42
2018-09-15T13:20:47.556Z,99433.41
2018-09-15T13:23:16.354Z,99442.13
2018-09-15T13:25:45.659Z,99434.58
2018-09-15T13:28:14.590Z,99434.58
2018-09-15T13:30:43.369Z,99429.34
2018-09-15T13:33:12.535Z,99433.12
2018-09-15T13:35:41.410Z,99430.00
2018-09-15T13:38:10.176Z,99433.66
2018-09-15T13:40:39.204Z,99421.81
2018-09-15T13:43:07.910Z,99421.29
2018-09-15T13:45:37.837Z,99427.81
2018-09-15T13:48:07.907Z,99422.27
2018-09-15T13:50:36.674Z,99416.50
2018-09-15T13:53:05.449Z,99414.39
2018-09-15T13:55:34.785Z,99408.09
2018-09-15T13:58:04.406Z,99417.55
2018-09-15T14:00:34.412Z,99420.38
2018-09-15T14:03:03.237Z,99420.07
2018-09-15T14:05:32.091Z,99415.36
2018-09-15T14:08:00.965Z,99420.16
2018-09-15T14:10:29.868Z,99413.56
2018-09-15T14:12:58.721Z,99420.38
2018-09-15T14:15:27.569Z,99417.03
2018-09-15T14:17:56.806Z,99423.33
2018-09-15T14:20:25.646Z,99418.70
2018-09-15T14:22:54.457Z,99414.84
2018-09-15T14:25:23.443Z,99422.05
2018-09-15T14:27:52.168Z,99420.81
2018-09-15T14:30:21.035Z,99418.70
2018-09-15T14:32:49.916Z,99417.78
2018-09-15T14:35:18.914Z,99417.56
2018-09-15T14:37:47.797Z,99411.89
2018-09-15T14:40:17.178Z,99415.80
2018-09-15T14:42:46.059Z,99410.53
2018-09-15T14:45:14.856Z,99414.75
2018-09-15T14:47:43.695Z,99410.13
2018-09-15T14:50:12.496Z,99406.57
2018-09-15T14:52:41.349Z,99415.71
2018-09-15T14:55:10.327Z,99413.61
2018-09-15T14:57:39.124Z,99416.45
2018-09-15T15:00:08.856Z,99419.63
2018-09-15T15:02:38.213Z,99414.23
2018-09-15T15:05:07.190Z,99413.82
2018-09-15T15:07:36.090Z,99422.44
2018-09-15T15:10:05.489Z,99428.20
2018-09-15T15:12:34.349Z,99415.92
2018-09-15T15:15:03.140Z,99427.78
2018-09-15T15:17:31.921Z,99418.33
2018-09-15T15:20:01.112Z,99428.42
2018-09-15T15:22:30.040Z,99432.40
2018-09-15T15:24:58.848Z,99428.51
2018-09-15T15:27:27.776Z,99432.09
2018-09-15T15:29:56.585Z,99431.12
2018-09-15T15:32:25.703Z,99438.44
2018-09-15T15:34:54.617Z,99433.78
2018-09-15T15:37:23.403Z,99433.58
2018-09-15T15:39:52.285Z,99443.53
2018-09-15T15:42:21.283Z,99447.69
2018-09-15T15:44:50.198Z,99446.53
2018-09-15T15:47:19.421Z,99452.19
2018-09-15T15:49:48.795Z,99445.80
2018-09-15T15:52:17.610Z,99447.45
2018-09-15T15:54:46.931Z,99446.72
2018-09-15T15:57:15.648Z,99461.75
2018-09-15T15:59:44.525Z,99465.48
2018-09-15T16:02:13.746Z,99463.66
2018-09-15T16:04:42.510Z,99473.67
2018-09-15T16:07:11.408Z,99475.59
2018-09-15T16:09:40.710Z,99473.13
2018-09-15T16:12:09.497Z,99478.09
2018-09-15T16:14:38.211Z,99482.80
2018-09-15T16:17:08.301Z,99492.44
2018-09-15T16:19:37.214Z,99489.02
2018-09-15T16:22:06.148Z,99488.84
2018-09-15T16:24:35.427Z,99484.66
2018-09-15T16:27:04.317Z,99493.86
2018-09-15T16:29:33.203Z,99497.70
2018-09-15T16:32:02.488Z,99497.23
2018-09-15T16:34:31.281Z,99501.70
2018-09-15T16:37:00.105Z,99502.28
2018-09-15T16:39:28.956Z,99510.16
2018-09-15T16:41:57.739Z,99505.03
2018-09-15T16:44:26.596Z,99507.91
2018-09-15T16:46:55.517Z,99509.24
2018-09-15T16:49:24.417Z,99515.61
2018-09-15T16:51:53.289Z,99519.17
2018-09-15T16:54:22.516Z,99528.41
2018-09-15T16:56:51.457Z,99531.13
2018-09-15T16:59:20.362Z,99529.83
2018-09-15T17:01:49.772Z,99533.70
2018-09-15T17:04:18.660Z,99534.98
2018-09-15T17:06:47.497Z,99544.83
2018-09-15T17:09:16.637Z,99549.02
2018-09-15T17:11:45.626Z,99554.20
2018-09-15T17:14:14.570Z,99556.20
2018-09-15T17:16:43.676Z,99564.06
2018-09-15T17:19:12.433Z,99565.54
2018-09-15T17:21:41.323Z,99566.67
2018-09-15T17:24:10.237Z,99572.85
2018-09-15T17:26:39.007Z,99573.13
2018-09-15T17:29:07.884Z,99578.53
2018-09-15T17:31:37.016Z,99584.53
2018-09-15T17:34:05.858Z,99585.23
2018-09-15T17:36:34.796Z,99589.02
2018-09-15T17:39:05.322Z,99590.36
2018-09-15T17:41:34.279Z,99600.09
2018-09-15T17:44:03.114Z,99604.19
2018-09-15T17:46:32.203Z,99609.17
2018-09-15T17:49:01.100Z,99614.06
2018-09-15T17:51:30.049Z,99610.52
2018-09-15T17:53:59.005Z,99612.42
2018-09-15T17:56:27.920Z,99616.83
2018-09-15T17:58:56.890Z,99615.18
2018-09-15T18:01:25.748Z,99621.44
2018-09-15T18:03:54.525Z,99628.02
2018-09-15T18:06:23.361Z,99624.83
2018-09-15T18:08:53.425Z,99629.55
2018-09-15T18:11:22.721Z,99639.88
2018-09-15T18:13:51.475Z,99632.08
2018-09-15T18:16:20.723Z,99638.31
2018-09-15T18:18:49.616Z,99641.20
2018-09-15T18:21:18.503Z,99642.70
2018-09-15T18:23:47.568Z,99646.77
2018-09-15T18:26:16.513Z,99648.27
2018-09-15T18:28:45.320Z,99653.17
2018-09-15T18:31:14.425Z,99657.20
2018-09-15T18:33:43.200Z,99661.75
2018-09-15T18:36:12.124Z,99664.98
2018-09-15T18:38:41.487Z,99669.85
2018-09-15T18:41:10.313Z,99669.85
2018-09-15T18:43:41.364Z,99668.16
2018-09-15T18:46:10.170Z,99672.22
2018-09-15T18:48:39.001Z,99678.80
2018-09-15T18:51:08.192Z,99678.09
2018-09-15T18:53:37.457Z,99673.20
2018-09-15T18:56:06.865Z,99676.29
2018-09-15T18:58:36.072Z,99671.08
2018-09-15T19:01:04.897Z,99678.67
2018-09-15T19:03:33.748Z,99676.81
2018-09-15T19:06:02.910Z,99671.05
2018-09-15T19:08:31.556Z,99676.10
2018-09-15T19:11:00.423Z,99671.99
2018-09-15T19:13:29.215Z,99679.86
2018-09-15T19:15:58.051Z,99676.02
2018-09-15T19:18:26.873Z,99678.23
2018-09-15T19:20:56.100Z,99679.78
2018-09-15T19:23:25.078Z,99686.47
2018-09-15T19:25:53.965Z,99692.03
2018-09-15T19:28:22.848Z,99696.09
2018-09-15T19:30:51.588Z,99694.27
2018-09-15T19:33:20.396Z,99705.59
2018-09-15T19:35:49.315Z,99704.76
2018-09-15T19:38:18.123Z,99704.55
2018-09-15T19:40:46.985Z,99706.58
2018-09-15T19:43:16.305Z,99707.93
2018-09-15T19:45:45.460Z,99713.66
2018-09-15T19:48:14.409Z,99714.84
2018-09-15T19:50:43.365Z,99712.45
2018-09-15T19:53:12.041Z,99719.49
2018-09-15T19:55:41.181Z,99716.92
2018-09-15T19:58:10.116Z,99722.10
2018-09-15T20:00:38.928Z,99727.15
2018-09-15T20:03:07.879Z,99727.48
2018-09-15T20:05:36.669Z,99725.80
2018-09-15T20:08:05.542Z,99733.88
2018-09-15T20:10:34.328Z,99728.95
2018-09-15T20:13:03.664Z,99724.22
2018-09-15T20:15:31.148Z,99723.72
2018-09-15T20:17:59.220Z,99720.97
2018-09-15T20:20:26.943Z,99726.02
2018-09-15T20:22:56.481Z,99729.05
2018-09-15T20:25:25.399Z,99727.66
2018-09-15T20:27:54.348Z,99729.72
2018-09-15T20:30:23.228Z,99730.91
2018-09-15T20:32:51.966Z,99741.19
2018-09-15T20:35:21.085Z,99736.81
2018-09-15T20:37:49.939Z,99739.56
2018-09-15T20:40:18.779Z,99745.66
2018-09-15T20:42:47.668Z,99750.77
2018-09-15T20:45:16.524Z,99749.41
2018-09-15T20:47:45.435Z,99753.84
2018-09-15T20:50:14.615Z,99750.97
2018-09-15T20:52:43.476Z,99751.66
2018-09-15T20:55:12.379Z,99740.70
2018-09-15T20:57:41.702Z,99746.09
2018-09-15T21:00:11.189Z,99748.50
2018-09-15T21:02:40.516Z,99747.66
2018-09-15T21:05:09.403Z,99745.77
2018-09-15T21:07:38.301Z,99746.27
2018-09-15T21:10:07.598Z,99746.77
2018-09-15T21:12:36.932Z,99749.84
2018-09-15T21:15:06.008Z,99749.52
2018-09-15T21:17:34.880Z,99753.22
2018-09-15T21:20:03.928Z,99758.11
2018-09-15T21:22:32.815Z,99757.89
2018-09-15T21:25:01.813Z,99764.48
2018-09-15T21:27:31.020Z,99767.34
2018-09-15T21:29:59.916Z,99764.19
2018-09-15T21:32:28.651Z,99769.08
2018-09-15T21:34:58.586Z,99770.39
2018-09-15T21:37:27.452Z,99768.17
2018-09-15T21:39:56.280Z,99768.02
2018-09-15T21:42:25.592Z,99766.88
2018-09-15T21:44:54.416Z,99774.44
2018-09-15T21:47:23.257Z,99774.09
2018-09-15T21:49:52.464Z,99773.80
2018-09-15T21:52:21.288Z,99776.49
2018-09-15T21:54:50.149Z,99773.63
2018-09-15T21:57:19.207Z,99776.11
2018-09-15T21:59:48.132Z,99773.25
2018-09-15T22:02:16.925Z,99773.08
2018-09-15T22:04:45.768Z,99772.75
2018-09-15T22:07:14.547Z,99775.66
2018-09-15T22:09:43.341Z,99777.84
2018-09-15T22:12:12.113Z,99787.30
2018-09-15T22:14:40.877Z,99776.78
2018-09-15T22:17:09.729Z,99781.55
2018-09-15T22:19:38.563Z,99783.24
2018-09-15T22:22:07.453Z,99785.89
2018-09-15T22:24:36.252Z,99783.03
2018-09-15T22:27:05.065Z,99789.10
2018-09-15T22:29:33.807Z,99786.11
2018-09-15T22:32:02.645Z,99787.75
2018-09-15T22:34:31.875Z,99795.55
2018-09-15T22:37:00.642Z,99791.95
2018-09-15T22:39:29.589Z,99793.98
2018-09-15T22:41:58.861Z,99791.27
2018-09-15T22:44:27.748Z,99798.48
2018-09-15T22:46:56.649Z,99798.66
2018-09-15T22:49:25.886Z,99800.34
2018-09-15T22:51:54.790Z,99789.54
2018-09-15T22:54:23.639Z,99800.31
2018-09-15T22:56:52.488Z,99804.49
2018-09-15T22:59:21.341Z,99804.02
2018-09-15T23:01:50.231Z,99797.45
2018-09-15T23:04:19.497Z,99798.64
2018-09-15T23:06:48.304Z,99805.84
2018-09-15T23:09:17.191Z,99805.55
2018-09-15T23:11:46.345Z,99808.91
2018-09-15T23:14:15.217Z,99810.27
2018-09-15T23:16:43.992Z,99811.73
2018-09-15T23:19:13.218Z,99812.39
2018-09-15T23:21:42.028Z,99814.70
2018-09-15T23:24:10.928Z,99814.02
2018-09-15T23:26:40.058Z,99814.34
2018-09-15T23:29:08.964Z,99815.67
2018-09-15T23:31:37.772Z,99813.10
2018-09-15T23:34:06.819Z,99819.14
2018-09-15T23:36:35.684Z,99813.48
2018-09-15T23:39:06.368Z,99816.68
2018-09-15T23:41:35.459Z,99812.43
2018-09-15T23:44:04.384Z,99807.22
2018-09-15T23:46:33.107Z,99807.67
2018-09-15T23:49:02.336Z,99810.00
2018-09-15T23:51:31.219Z,99810.02
2018-09-15T23:54:00.085Z,99811.69
2018-09-15T23:56:28.977Z,99810.52
2018-09-15T23:58:57.870Z,99805.64
